sensor_id;sensor_type;location;lat;lon;timestamp;pressure;altitude;pressure_sealevel;temperature;humidity
48244;BME280;34053;51.088;6.572;2022-08-01T00:00:45;101045.50;;;22.91;59.69
48244;BME280;34053;51.088;6.572;2022-08-01T00:03:15;101055.97;;;22.94;60.37
48244;BME280;34053;51.088;6.572;2022-08-01T00:05:47;101044.97;;;22.86;60.68
48244;BME280;34053;51.088;6.572;2022-08-01T00:08:17;101041.78;;;22.81;60.52
48244;BME280;34053;51.088;6.572;2022-08-01T00:10:48;101041.44;;;22.61;62.46
48244;BME280;34053;51.088;6.572;2022-08-01T00:13:19;101052.38;;;22.58;62.59
48244;BME280;34053;51.088;6.572;2022-08-01T00:15:49;101045.81;;;22.62;62.92
48244;BME280;34053;51.088;6.572;2022-08-01T00:18:20;101043.88;;;22.64;62.42
48244;BME280;34053;51.088;6.572;2022-08-01T00:20:51;101051.41;;;22.59;62.21
48244;BME280;34053;51.088;6.572;2022-08-01T00:23:21;101055.53;;;22.63;60.88
48244;BME280;34053;51.088;6.572;2022-08-01T00:25:52;101053.22;;;22.59;61.26
48244;BME280;34053;51.088;6.572;2022-08-01T00:28:22;101056.63;;;22.61;61.85
48244;BME280;34053;51.088;6.572;2022-08-01T00:30:53;101059.75;;;22.55;62.28
48244;BME280;34053;51.088;6.572;2022-08-01T00:33:23;101054.41;;;22.55;62.13
48244;BME280;34053;51.088;6.572;2022-08-01T00:35:54;101055.47;;;22.52;62.70
48244;BME280;34053;51.088;6.572;2022-08-01T00:38:25;101054.84;;;22.48;63.27
48244;BME280;34053;51.088;6.572;2022-08-01T00:40:58;101055.38;;;22.54;61.46
48244;BME280;34053;51.088;6.572;2022-08-01T00:43:29;101055.72;;;22.49;61.64
48244;BME280;34053;51.088;6.572;2022-08-01T00:46:00;101059.56;;;22.45;63.00
48244;BME280;34053;51.088;6.572;2022-08-01T00:48:33;101058.19;;;22.26;65.65
48244;BME280;34053;51.088;6.572;2022-08-01T00:51:04;101051.84;;;22.27;64.84
48244;BME280;34053;51.088;6.572;2022-08-01T00:53:35;101054.00;;;22.22;63.95
48244;BME280;34053;51.088;6.572;2022-08-01T00:56:09;101061.81;;;22.25;64.82
48244;BME280;34053;51.088;6.572;2022-08-01T00:58:40;101053.34;;;22.31;62.52
48244;BME280;34053;51.088;6.572;2022-08-01T01:01:15;101059.34;;;22.35;62.09
48244;BME280;34053;51.088;6.572;2022-08-01T01:03:46;101054.84;;;22.36;63.08
48244;BME280;34053;51.088;6.572;2022-08-01T01:09:15;101059.88;;;22.27;62.78
48244;BME280;34053;51.088;6.572;2022-08-01T01:11:57;101054.44;;;22.29;62.50
48244;BME280;34053;51.088;6.572;2022-08-01T01:15:01;101053.56;;;22.28;62.58
48244;BME280;34053;51.088;6.572;2022-08-01T01:17:40;101050.81;;;22.30;62.45
48244;BME280;34053;51.088;6.572;2022-08-01T01:20:13;101051.00;;;22.27;62.39
48244;BME280;34053;51.088;6.572;2022-08-01T01:22:57;101051.66;;;22.30;61.69
48244;BME280;34053;51.088;6.572;2022-08-01T01:30:55;101055.28;;;22.29;61.80
48244;BME280;34053;51.088;6.572;2022-08-01T01:33:29;101054.44;;;22.29;61.72
48244;BME280;34053;51.088;6.572;2022-08-01T01:36:08;101057.19;;;22.27;63.00
48244;BME280;34053;51.088;6.572;2022-08-01T01:38:44;101052.72;;;22.28;61.65
48244;BME280;34053;51.088;6.572;2022-08-01T01:41:17;101052.22;;;22.23;62.22
48244;BME280;34053;51.088;6.572;2022-08-01T01:43:49;101056.47;;;22.25;62.03
48244;BME280;34053;51.088;6.572;2022-08-01T01:46:23;101064.91;;;22.19;63.81
48244;BME280;34053;51.088;6.572;2022-08-01T01:48:58;101058.19;;;22.26;62.25
48244;BME280;34053;51.088;6.572;2022-08-01T01:51:29;101060.00;;;22.26;62.21
48244;BME280;34053;51.088;6.572;2022-08-01T01:54:04;101062.78;;;22.24;62.08
48244;BME280;34053;51.088;6.572;2022-08-01T01:56:41;101062.47;;;22.16;63.11
48244;BME280;34053;51.088;6.572;2022-08-01T01:59:20;101059.78;;;22.16;63.74
48244;BME280;34053;51.088;6.572;2022-08-01T02:01:55;101051.16;;;22.12;64.12
48244;BME280;34053;51.088;6.572;2022-08-01T02:04:27;101051.03;;;22.14;62.74
48244;BME280;34053;51.088;6.572;2022-08-01T02:07:02;101049.31;;;22.13;63.55
48244;BME280;34053;51.088;6.572;2022-08-01T02:09:34;101051.22;;;22.11;63.63
48244;BME280;34053;51.088;6.572;2022-08-01T02:12:10;101045.88;;;22.11;62.66
48244;BME280;34053;51.088;6.572;2022-08-01T02:14:45;101049.44;;;22.11;62.57
48244;BME280;34053;51.088;6.572;2022-08-01T02:17:18;101048.81;;;22.08;62.23
48244;BME280;34053;51.088;6.572;2022-08-01T02:19:50;101049.56;;;22.10;63.62
48244;BME280;34053;51.088;6.572;2022-08-01T02:22:29;101046.97;;;22.08;62.53
48244;BME280;34053;51.088;6.572;2022-08-01T02:25:35;101047.59;;;22.12;63.74
48244;BME280;34053;51.088;6.572;2022-08-01T02:28:13;101035.56;;;22.06;63.36
48244;BME280;34053;51.088;6.572;2022-08-01T02:30:47;101042.06;;;22.02;63.64
48244;BME280;34053;51.088;6.572;2022-08-01T02:33:23;101039.41;;;22.02;62.68
48244;BME280;34053;51.088;6.572;2022-08-01T02:35:58;101032.91;;;21.93;64.37
48244;BME280;34053;51.088;6.572;2022-08-01T02:38:33;101048.25;;;22.02;63.04
48244;BME280;34053;51.088;6.572;2022-08-01T02:41:09;101041.00;;;22.05;62.46
48244;BME280;34053;51.088;6.572;2022-08-01T02:43:43;101041.22;;;22.01;62.95
48244;BME280;34053;51.088;6.572;2022-08-01T02:46:20;101038.56;;;22.01;62.90
48244;BME280;34053;51.088;6.572;2022-08-01T02:48:53;101039.72;;;21.97;64.45
48244;BME280;34053;51.088;6.572;2022-08-01T02:51:30;101043.13;;;21.99;63.70
48244;BME280;34053;51.088;6.572;2022-08-01T02:54:08;101042.50;;;21.96;63.61
48244;BME280;34053;51.088;6.572;2022-08-01T02:56:40;101042.19;;;22.00;63.02
48244;BME280;34053;51.088;6.572;2022-08-01T02:59:16;101036.41;;;21.94;63.52
48244;BME280;34053;51.088;6.572;2022-08-01T03:01:48;101032.03;;;21.93;63.19
48244;BME280;34053;51.088;6.572;2022-08-01T03:04:22;101030.00;;;21.83;64.64
48244;BME280;34053;51.088;6.572;2022-08-01T03:06:56;101028.59;;;21.78;65.32
48244;BME280;34053;51.088;6.572;2022-08-01T03:09:29;101028.19;;;21.84;64.47
48244;BME280;34053;51.088;6.572;2022-08-01T03:12:06;101030.00;;;21.83;65.02
48244;BME280;34053;51.088;6.572;2022-08-01T03:14:40;101027.88;;;21.89;64.27
48244;BME280;34053;51.088;6.572;2022-08-01T03:17:12;101047.53;;;21.88;63.59
48244;BME280;34053;51.088;6.572;2022-08-01T03:19:44;101047.53;;;21.88;64.25
48244;BME280;34053;51.088;6.572;2022-08-01T03:22:16;101053.72;;;21.88;63.22
48244;BME280;34053;51.088;6.572;2022-08-01T03:24:49;101048.38;;;21.88;63.18
48244;BME280;34053;51.088;6.572;2022-08-01T03:27:22;101052.97;;;21.86;63.60
48244;BME280;34053;51.088;6.572;2022-08-01T03:29:56;101051.16;;;21.87;63.01
48244;BME280;34053;51.088;6.572;2022-08-01T03:32:29;101061.19;;;21.83;63.52
48244;BME280;34053;51.088;6.572;2022-08-01T03:35:02;101060.00;;;21.87;62.94
48244;BME280;34053;51.088;6.572;2022-08-01T03:37:38;101059.81;;;21.90;62.99
48244;BME280;34053;51.088;6.572;2022-08-01T03:40:13;101056.38;;;21.88;63.19
48244;BME280;34053;51.088;6.572;2022-08-01T03:42:51;101049.88;;;21.92;62.74
48244;BME280;34053;51.088;6.572;2022-08-01T03:45:27;101052.97;;;21.86;62.55
48244;BME280;34053;51.088;6.572;2022-08-01T03:48:22;101052.97;;;21.86;64.00
48244;BME280;34053;51.088;6.572;2022-08-01T03:50:53;101058.28;;;21.86;63.25
48244;BME280;34053;51.088;6.572;2022-08-01T03:53:28;101063.25;;;21.92;62.43
48244;BME280;34053;51.088;6.572;2022-08-01T03:56:02;101059.69;;;21.92;62.77
48244;BME280;34053;51.088;6.572;2022-08-01T03:58:35;101054.78;;;21.85;63.26
48244;BME280;34053;51.088;6.572;2022-08-01T04:01:07;101058.97;;;21.90;62.80
48244;BME280;34053;51.088;6.572;2022-08-01T04:03:40;101052.56;;;21.92;62.45
48244;BME280;34053;51.088;6.572;2022-08-01T04:06:11;101060.88;;;21.88;62.91
48244;BME280;34053;51.088;6.572;2022-08-01T04:08:44;101054.47;;;21.90;62.85
48244;BME280;34053;51.088;6.572;2022-08-01T04:11:26;101052.63;;;21.91;62.42
48244;BME280;34053;51.088;6.572;2022-08-01T04:13:57;101049.13;;;21.90;62.21
48244;BME280;34053;51.088;6.572;2022-08-01T04:16:28;101066.22;;;21.88;62.15
48244;BME280;34053;51.088;6.572;2022-08-01T04:18:59;101061.63;;;21.90;62.00
48244;BME280;34053;51.088;6.572;2022-08-01T04:21:32;101058.09;;;21.89;62.38
48244;BME280;34053;51.088;6.572;2022-08-01T04:24:16;101059.06;;;21.88;62.37
48244;BME280;34053;51.088;6.572;2022-08-01T04:26:50;101065.34;;;21.87;62.61
48244;BME280;34053;51.088;6.572;2022-08-01T04:29:22;101074.56;;;21.83;63.00
48244;BME280;34053;51.088;6.572;2022-08-01T04:31:55;101073.38;;;21.87;62.31
48244;BME280;34053;51.088;6.572;2022-08-01T04:34:28;101082.34;;;21.86;63.13
48244;BME280;34053;51.088;6.572;2022-08-01T04:37:02;101075.19;;;21.87;62.35
48244;BME280;34053;51.088;6.572;2022-08-01T04:39:34;101084.06;;;21.87;62.44
48244;BME280;34053;51.088;6.572;2022-08-01T04:42:12;101080.41;;;21.88;62.24
48244;BME280;34053;51.088;6.572;2022-08-01T04:44:44;101083.84;;;21.90;62.16
48244;BME280;34053;51.088;6.572;2022-08-01T04:47:15;101083.09;;;21.88;62.25
48244;BME280;34053;51.088;6.572;2022-08-01T04:49:46;101084.59;;;21.92;62.05
48244;BME280;34053;51.088;6.572;2022-08-01T04:52:17;101084.47;;;21.81;64.23
48244;BME280;34053;51.088;6.572;2022-08-01T04:54:50;101094.00;;;21.85;62.68
48244;BME280;34053;51.088;6.572;2022-08-01T04:57:21;101097.41;;;21.87;63.01
48244;BME280;34053;51.088;6.572;2022-08-01T04:59:51;101101.78;;;21.88;63.04
48244;BME280;34053;51.088;6.572;2022-08-01T05:02:26;101100.19;;;21.85;62.66
48244;BME280;34053;51.088;6.572;2022-08-01T05:04:59;101098.28;;;21.88;62.93
48244;BME280;34053;51.088;6.572;2022-08-01T05:07:30;101103.28;;;21.79;63.85
48244;BME280;34053;51.088;6.572;2022-08-01T05:10:00;101104.91;;;21.82;63.45
48244;BME280;34053;51.088;6.572;2022-08-01T05:12:31;101099.56;;;21.82;62.64
48244;BME280;34053;51.088;6.572;2022-08-01T05:15:05;101102.97;;;21.84;62.92
48244;BME280;34053;51.088;6.572;2022-08-01T05:17:38;101097.63;;;21.84;63.07
48244;BME280;34053;51.088;6.572;2022-08-01T05:20:09;101102.34;;;21.80;63.28
48244;BME280;34053;51.088;6.572;2022-08-01T05:22:40;101100.31;;;21.84;63.09
48244;BME280;34053;51.088;6.572;2022-08-01T05:25:13;101102.22;;;21.82;63.38
48244;BME280;34053;51.088;6.572;2022-08-01T05:27:43;101095.94;;;21.83;63.47
48244;BME280;34053;51.088;6.572;2022-08-01T05:30:14;101102.97;;;21.84;63.14
48244;BME280;34053;51.088;6.572;2022-08-01T05:32:44;101103.50;;;21.89;62.43
48244;BME280;34053;51.088;6.572;2022-08-01T05:35:15;101106.28;;;21.88;62.81
48244;BME280;34053;51.088;6.572;2022-08-01T05:37:45;101109.03;;;21.86;63.20
48244;BME280;34053;51.088;6.572;2022-08-01T05:40:16;101116.03;;;21.89;64.27
48244;BME280;34053;51.088;6.572;2022-08-01T05:42:46;101120.06;;;21.94;63.07
48244;BME280;34053;51.088;6.572;2022-08-01T05:45:17;101120.50;;;21.88;64.38
48244;BME280;34053;51.088;6.572;2022-08-01T05:47:47;101118.47;;;21.92;63.94
48244;BME280;34053;51.088;6.572;2022-08-01T05:50:21;101122.41;;;21.86;64.12
48244;BME280;34053;51.088;6.572;2022-08-01T05:52:51;101125.63;;;21.91;63.97
48244;BME280;34053;51.088;6.572;2022-08-01T05:55:21;101125.19;;;21.97;63.23
48244;BME280;34053;51.088;6.572;2022-08-01T05:57:55;101123.41;;;21.98;63.30
48244;BME280;34053;51.088;6.572;2022-08-01T06:00:26;101124.38;;;21.97;63.66
48244;BME280;34053;51.088;6.572;2022-08-01T06:02:56;101126.41;;;22.06;63.77
48244;BME280;34053;51.088;6.572;2022-08-01T06:05:27;101119.84;;;21.97;64.17
48244;BME280;34053;51.088;6.572;2022-08-01T06:07:57;101123.06;;;22.02;63.38
48244;BME280;34053;51.088;6.572;2022-08-01T06:10:28;101124.03;;;22.01;65.18
48244;BME280;34053;51.088;6.572;2022-08-01T06:13:02;101118.69;;;22.01;65.66
48244;BME280;34053;51.088;6.572;2022-08-01T06:15:33;101113.69;;;22.10;64.53
48244;BME280;34053;51.088;6.572;2022-08-01T06:18:04;101122.66;;;22.09;64.33
48244;BME280;34053;51.088;6.572;2022-08-01T06:20:35;101112.59;;;22.12;64.01
48244;BME280;34053;51.088;6.572;2022-08-01T06:23:05;101107.91;;;22.16;63.98
48244;BME280;34053;51.088;6.572;2022-08-01T06:25:36;101116.03;;;22.14;64.27
48244;BME280;34053;51.088;6.572;2022-08-01T06:28:07;101118.16;;;22.22;64.79
48244;BME280;34053;51.088;6.572;2022-08-01T06:30:41;101114.72;;;22.20;64.14
48244;BME280;34053;51.088;6.572;2022-08-01T06:33:11;101113.88;;;22.20;64.62
48244;BME280;34053;51.088;6.572;2022-08-01T06:35:42;101121.25;;;22.16;64.53
48244;BME280;34053;51.088;6.572;2022-08-01T06:38:13;101120.50;;;22.14;64.43
48244;BME280;34053;51.088;6.572;2022-08-01T06:40:43;101121.69;;;22.10;64.50
48244;BME280;34053;51.088;6.572;2022-08-01T06:43:14;101120.72;;;22.11;63.89
48244;BME280;34053;51.088;6.572;2022-08-01T06:45:45;101118.34;;;22.19;63.55
48244;BME280;34053;51.088;6.572;2022-08-01T06:48:16;101125.72;;;22.15;63.40
48244;BME280;34053;51.088;6.572;2022-08-01T06:50:46;101129.28;;;22.16;63.86
48244;BME280;34053;51.088;6.572;2022-08-01T06:53:17;101125.00;;;22.13;63.61
48244;BME280;34053;51.088;6.572;2022-08-01T06:55:48;101125.72;;;22.15;63.33
48244;BME280;34053;51.088;6.572;2022-08-01T06:58:18;101130.22;;;22.15;63.95
48244;BME280;34053;51.088;6.572;2022-08-01T07:00:49;101128.41;;;22.15;64.18
48244;BME280;34053;51.088;6.572;2022-08-01T07:03:19;101129.47;;;22.13;64.28
48244;BME280;34053;51.088;6.572;2022-08-01T07:05:50;101124.13;;;22.13;64.01
48244;BME280;34053;51.088;6.572;2022-08-01T07:08:20;101121.78;;;22.08;63.73
48244;BME280;34053;51.088;6.572;2022-08-01T07:10:51;101120.06;;;22.20;63.51
48244;BME280;34053;51.088;6.572;2022-08-01T07:13:22;101124.69;;;22.18;63.30
48244;BME280;34053;51.088;6.572;2022-08-01T07:15:55;101119.22;;;22.20;63.74
48244;BME280;34053;51.088;6.572;2022-08-01T07:18:25;101122.84;;;22.19;63.58
48244;BME280;34053;51.088;6.572;2022-08-01T07:20:56;101128.00;;;22.22;63.67
48244;BME280;34053;51.088;6.572;2022-08-01T07:23:26;101130.13;;;22.29;62.99
48244;BME280;34053;51.088;6.572;2022-08-01T07:25:57;101122.75;;;22.20;63.70
48244;BME280;34053;51.088;6.572;2022-08-01T07:28:28;101127.38;;;22.18;63.68
48244;BME280;34053;51.088;6.572;2022-08-01T07:30:58;101124.25;;;22.24;63.34
48244;BME280;34053;51.088;6.572;2022-08-01T07:33:29;101116.44;;;22.34;62.77
48244;BME280;34053;51.088;6.572;2022-08-01T07:35:59;101120.19;;;22.31;63.28
48244;BME280;34053;51.088;6.572;2022-08-01T07:38:33;101126.28;;;22.33;62.70
48244;BME280;34053;51.088;6.572;2022-08-01T07:41:10;101133.97;;;22.38;62.69
48244;BME280;34053;51.088;6.572;2022-08-01T07:43:40;101133.06;;;22.39;62.66
48244;BME280;34053;51.088;6.572;2022-08-01T07:46:11;101138.03;;;22.44;62.51
48244;BME280;34053;51.088;6.572;2022-08-01T07:48:42;101136.13;;;22.46;62.68
48244;BME280;34053;51.088;6.572;2022-08-01T07:51:13;101129.59;;;22.50;62.46
48244;BME280;34053;51.088;6.572;2022-08-01T07:53:44;101134.72;;;22.53;62.55
48244;BME280;34053;51.088;6.572;2022-08-01T07:56:18;101131.00;;;22.56;62.26
48244;BME280;34053;51.088;6.572;2022-08-01T07:58:50;101134.19;;;22.48;62.59
48244;BME280;34053;51.088;6.572;2022-08-01T08:01:20;101145.50;;;22.64;62.30
48244;BME280;34053;51.088;6.572;2022-08-01T08:03:51;101142.84;;;22.64;62.24
48244;BME280;34053;51.088;6.572;2022-08-01T08:06:21;101143.69;;;22.65;62.08
48244;BME280;34053;51.088;6.572;2022-08-01T08:08:52;101151.06;;;22.61;62.30
48244;BME280;34053;51.088;6.572;2022-08-01T08:11:23;101146.25;;;22.67;61.72
48244;BME280;34053;51.088;6.572;2022-08-01T08:13:54;101147.75;;;22.71;61.42
48244;BME280;34053;51.088;6.572;2022-08-01T08:16:24;101151.50;;;22.68;61.64
48244;BME280;34053;51.088;6.572;2022-08-01T08:18:56;101154.38;;;22.65;62.23
48244;BME280;34053;51.088;6.572;2022-08-01T08:21:27;101150.41;;;22.71;61.40
48244;BME280;34053;51.088;6.572;2022-08-01T08:23:58;101154.28;;;22.67;61.93
48244;BME280;34053;51.088;6.572;2022-08-01T08:26:52;101155.75;;;22.71;61.46
48244;BME280;34053;51.088;6.572;2022-08-01T08:29:24;101166.00;;;22.77;61.17
48244;BME280;34053;51.088;6.572;2022-08-01T08:31:56;101154.47;;;22.76;61.12
48244;BME280;34053;51.088;6.572;2022-08-01T08:34:27;101154.91;;;22.83;61.16
48244;BME280;34053;51.088;6.572;2022-08-01T08:36:58;101163.25;;;22.78;61.32
48244;BME280;34053;51.088;6.572;2022-08-01T08:39:29;101160.91;;;22.74;61.84
48244;BME280;34053;51.088;6.572;2022-08-01T08:42:00;101154.91;;;22.83;61.27
48244;BME280;34053;51.088;6.572;2022-08-01T08:44:32;101157.56;;;22.83;61.38
48244;BME280;34053;51.088;6.572;2022-08-01T08:47:03;101160.25;;;22.83;61.48
48244;BME280;34053;51.088;6.572;2022-08-01T08:49:37;101157.13;;;22.89;61.45
48244;BME280;34053;51.088;6.572;2022-08-01T08:52:11;101159.59;;;22.92;61.53
48244;BME280;34053;51.088;6.572;2022-08-01T08:54:42;101163.53;;;23.00;61.14
48244;BME280;34053;51.088;6.572;2022-08-01T08:57:14;101166.50;;;23.08;60.90
48244;BME280;34053;51.088;6.572;2022-08-01T08:59:45;101167.22;;;23.10;61.35
48244;BME280;34053;51.088;6.572;2022-08-01T09:02:16;101162.44;;;23.02;60.90
48244;BME280;34053;51.088;6.572;2022-08-01T09:04:49;101161.34;;;23.05;61.00
48244;BME280;34053;51.088;6.572;2022-08-01T09:07:20;101163.81;;;23.08;60.90
48244;BME280;34053;51.088;6.572;2022-08-01T09:09:50;101161.69;;;23.00;61.06
48244;BME280;34053;51.088;6.572;2022-08-01T09:12:23;101157.25;;;22.88;61.33
48244;BME280;34053;51.088;6.572;2022-08-01T09:14:58;101165.56;;;22.96;60.77
48244;BME280;34053;51.088;6.572;2022-08-01T09:17:39;101166.69;;;23.05;60.76
48244;BME280;34053;51.088;6.572;2022-08-01T09:20:22;101173.31;;;23.12;61.04
48244;BME280;34053;51.088;6.572;2022-08-01T09:22:54;101173.44;;;23.10;61.05
48244;BME280;34053;51.088;6.572;2022-08-01T09:25:24;101181.13;;;23.15;60.82
48244;BME280;34053;51.088;6.572;2022-08-01T09:28:03;101179.75;;;23.22;60.27
48244;BME280;34053;51.088;6.572;2022-08-01T09:30:38;101183.88;;;23.26;59.82
48244;BME280;34053;51.088;6.572;2022-08-01T09:33:09;101180.69;;;23.21;60.19
48244;BME280;34053;51.088;6.572;2022-08-01T09:35:40;101183.03;;;23.26;60.08
48244;BME280;34053;51.088;6.572;2022-08-01T09:38:22;101182.72;;;23.31;59.75
48244;BME280;34053;51.088;6.572;2022-08-01T09:40:57;101178.31;;;23.30;59.81
48244;BME280;34053;51.088;6.572;2022-08-01T09:43:30;101174.88;;;23.27;59.32
48244;BME280;34053;51.088;6.572;2022-08-01T09:46:09;101177.22;;;23.32;59.34
48244;BME280;34053;51.088;6.572;2022-08-01T09:49:04;101172.75;;;23.33;59.15
48244;BME280;34053;51.088;6.572;2022-08-01T09:51:37;101175.50;;;23.31;59.40
48244;BME280;34053;51.088;6.572;2022-08-01T09:54:08;101170.56;;;23.38;58.72
48244;BME280;34053;51.088;6.572;2022-08-01T09:56:41;101173.75;;;23.43;58.48
48244;BME280;34053;51.088;6.572;2022-08-01T09:59:12;101178.59;;;23.38;59.34
48244;BME280;34053;51.088;6.572;2022-08-01T10:01:45;101170.56;;;23.38;59.55
48244;BME280;34053;51.088;6.572;2022-08-01T10:04:20;101172.63;;;23.58;58.29
48244;BME280;34053;51.088;6.572;2022-08-01T10:06:51;101173.97;;;23.64;57.42
48244;BME280;34053;51.088;6.572;2022-08-01T10:09:35;101169.41;;;23.53;57.45
48244;BME280;34053;51.088;6.572;2022-08-01T10:12:10;101173.13;;;23.64;58.09
48244;BME280;34053;51.088;6.572;2022-08-01T10:14:42;101164.13;;;23.65;58.04
48244;BME280;34053;51.088;6.572;2022-08-01T10:17:16;101165.22;;;23.73;58.16
48244;BME280;34053;51.088;6.572;2022-08-01T10:19:48;101162.47;;;23.75;58.05
48244;BME280;34053;51.088;6.572;2022-08-01T10:22:23;101159.06;;;23.84;57.31
48244;BME280;34053;51.088;6.572;2022-08-01T10:24:55;101156.56;;;23.94;57.10
48244;BME280;34053;51.088;6.572;2022-08-01T10:27:28;101164.59;;;23.94;57.56
48244;BME280;34053;51.088;6.572;2022-08-01T10:30:01;101164.25;;;23.99;57.05
48244;BME280;34053;51.088;6.572;2022-08-01T10:32:38;101156.97;;;24.12;57.28
48244;BME280;34053;51.088;6.572;2022-08-01T10:35:09;101161.59;;;24.10;56.86
48244;BME280;34053;51.088;6.572;2022-08-01T10:37:46;101166.72;;;24.13;56.81
48244;BME280;34053;51.088;6.572;2022-08-01T10:40:17;101160.63;;;24.23;56.39
48244;BME280;34053;51.088;6.572;2022-08-01T10:42:51;101162.97;;;24.27;56.28
48244;BME280;34053;51.088;6.572;2022-08-01T10:45:22;101164.19;;;24.34;55.21
48244;BME280;34053;51.088;6.572;2022-08-01T10:48:22;101168.44;;;24.37;55.95
48244;BME280;34053;51.088;6.572;2022-08-01T10:51:00;101166.63;;;24.38;55.29
48244;BME280;34053;51.088;6.572;2022-08-01T10:53:34;101160.41;;;24.37;55.35
48244;BME280;34053;51.088;6.572;2022-08-01T10:56:05;101161.63;;;24.56;54.25
48244;BME280;34053;51.088;6.572;2022-08-01T10:58:42;101166.63;;;24.49;54.98
48244;BME280;34053;51.088;6.572;2022-08-01T11:01:26;101160.88;;;24.54;54.21
48244;BME280;34053;51.088;6.572;2022-08-01T11:14:28;101154.94;;;24.73;53.39
48244;BME280;34053;51.088;6.572;2022-08-01T11:17:38;101157.88;;;24.70;54.13
48244;BME280;34053;51.088;6.572;2022-08-01T11:20:16;101154.56;;;24.77;52.90
48244;BME280;34053;51.088;6.572;2022-08-01T11:28:25;101156.66;;;24.74;52.65
48244;BME280;34053;51.088;6.572;2022-08-01T11:38:48;101138.72;;;24.74;50.86
48244;BME280;34053;51.088;6.572;2022-08-01T11:41:26;101136.06;;;24.74;49.91
48244;BME280;34053;51.088;6.572;2022-08-01T11:44:02;101135.78;;;24.66;48.32
48244;BME280;34053;51.088;6.572;2022-08-01T11:52:15;101146.50;;;24.77;49.69
48244;BME280;34053;51.088;6.572;2022-08-01T11:54:49;101144.56;;;24.91;50.00
48244;BME280;34053;51.088;6.572;2022-08-01T11:57:28;101147.13;;;24.92;50.28
48244;BME280;34053;51.088;6.572;2022-08-01T12:02:40;101147.72;;;24.96;49.91
48244;BME280;34053;51.088;6.572;2022-08-01T12:05:13;101142.59;;;24.93;50.29
48244;BME280;34053;51.088;6.572;2022-08-01T12:07:49;101157.34;;;24.98;48.79
48244;BME280;34053;51.088;6.572;2022-08-01T12:10:22;101143.09;;;24.98;47.98
48244;BME280;34053;51.088;6.572;2022-08-01T12:12:58;101145.75;;;24.98;49.12
48244;BME280;34053;51.088;6.572;2022-08-01T12:15:32;101148.66;;;25.06;48.21
48244;BME280;34053;51.088;6.572;2022-08-01T12:18:04;101145.50;;;25.01;48.54
48244;BME280;34053;51.088;6.572;2022-08-01T12:20:42;101144.53;;;25.02;48.09
48244;BME280;34053;51.088;6.572;2022-08-01T12:23:18;101149.66;;;25.05;47.80
48244;BME280;34053;51.088;6.572;2022-08-01T12:25:51;101144.00;;;25.08;46.67
48244;BME280;34053;51.088;6.572;2022-08-01T12:28:22;101147.09;;;25.04;47.03
48244;BME280;34053;51.088;6.572;2022-08-01T12:30:53;101141.09;;;25.11;46.99
48244;BME280;34053;51.088;6.572;2022-08-01T12:33:24;101137.81;;;25.08;47.38
48244;BME280;34053;51.088;6.572;2022-08-01T12:35:55;101138.03;;;25.05;45.84
48244;BME280;34053;51.088;6.572;2022-08-01T12:38:28;101134.50;;;25.16;46.27
48244;BME280;34053;51.088;6.572;2022-08-01T12:41:05;101139.50;;;25.20;46.47
48244;BME280;34053;51.088;6.572;2022-08-01T12:43:40;101131.88;;;25.25;46.56
48244;BME280;34053;51.088;6.572;2022-08-01T12:46:11;101131.22;;;25.44;45.49
48244;BME280;34053;51.088;6.572;2022-08-01T12:48:46;101135.69;;;25.55;46.38
48244;BME280;34053;51.088;6.572;2022-08-01T12:51:20;101131.66;;;25.61;45.09
48244;BME280;34053;51.088;6.572;2022-08-01T12:53:51;101133.09;;;25.65;46.18
48244;BME280;34053;51.088;6.572;2022-08-01T12:56:32;101139.75;;;25.71;45.90
48244;BME280;34053;51.088;6.572;2022-08-01T12:59:27;101134.94;;;25.86;46.04
48244;BME280;34053;51.088;6.572;2022-08-01T13:02:08;101126.88;;;25.86;44.04
48244;BME280;34053;51.088;6.572;2022-08-01T13:04:51;101132.22;;;25.86;43.52
48244;BME280;34053;51.088;6.572;2022-08-01T13:07:22;101128.97;;;25.82;43.26
48244;BME280;34053;51.088;6.572;2022-08-01T13:09:52;101124.75;;;25.89;42.46
48244;BME280;34053;51.088;6.572;2022-08-01T13:12:23;101124.13;;;25.97;41.15
48244;BME280;34053;51.088;6.572;2022-08-01T13:14:54;101131.63;;;26.03;42.48
48244;BME280;34053;51.088;6.572;2022-08-01T13:17:32;101133.59;;;26.01;43.81
48244;BME280;34053;51.088;6.572;2022-08-01T13:20:11;101137.75;;;26.05;44.73
48244;BME280;34053;51.088;6.572;2022-08-01T13:22:51;101144.31;;;26.13;45.98
48244;BME280;34053;51.088;6.572;2022-08-01T13:25:22;101153.81;;;26.17;46.12
48244;BME280;34053;51.088;6.572;2022-08-01T13:28:15;101148.91;;;26.22;45.85
48244;BME280;34053;51.088;6.572;2022-08-01T13:33:25;101143.72;;;26.30;45.83
48244;BME280;34053;51.088;6.572;2022-08-01T13:35:56;101139.13;;;26.21;45.85
48244;BME280;34053;51.088;6.572;2022-08-01T13:38:27;101141.28;;;26.27;46.20
48244;BME280;34053;51.088;6.572;2022-08-01T13:41:16;101140.84;;;26.22;46.33
48244;BME280;34053;51.088;6.572;2022-08-01T13:43:47;101146.91;;;26.24;45.88
48244;BME280;34053;51.088;6.572;2022-08-01T13:46:18;101147.63;;;26.26;46.58
48244;BME280;34053;51.088;6.572;2022-08-01T13:48:49;101135.16;;;26.25;46.50
48244;BME280;34053;51.088;6.572;2022-08-01T13:51:23;101137.47;;;26.30;46.83
48244;BME280;34053;51.088;6.572;2022-08-01T13:53:54;101139.84;;;26.23;46.90
48244;BME280;34053;51.088;6.572;2022-08-01T13:56:26;101150.66;;;26.33;45.45
48244;BME280;34053;51.088;6.572;2022-08-01T13:58:58;101140.69;;;26.23;45.38
48244;BME280;34053;51.088;6.572;2022-08-01T14:01:28;101140.03;;;26.31;46.54
48244;BME280;34053;51.088;6.572;2022-08-01T14:03:59;101135.91;;;26.27;45.82
48244;BME280;34053;51.088;6.572;2022-08-01T14:06:31;101138.03;;;26.33;45.86